Time;durP1;ratioP1;P1;durP2;ratioP2;P2;SDS_P1;SDS_P2;PMS_P1;PMS_P2;Temp;Humidity;BMP_temperature;BMP_pressure;BME280_temperature;BME280_humidity;BME280_pressure;Samples;Min_cycle;Max_cycle;Signal;HPM_P1;HPM_P2
2021/05/01 00:00:44;;;;;;;1999.90;999.90;;;;;;;15.97;81.29;95515.16;5070887;28;20199;-62
2021/05/01 00:03:11;;;;;;;1999.90;999.90;;;;;;;15.57;83.00;95506.34;5070963;28;20682;-63
2021/05/01 00:05:38;;;;;;;1999.90;999.90;;;;;;;15.56;83.55;95515.28;5070825;28;20192;-61
2021/05/01 00:08:05;;;;;;;1999.90;999.90;;;;;;;15.27;85.20;95508.28;5070223;28;20204;-62
2021/05/01 00:10:32;;;;;;;1999.90;999.90;;;;;;;15.34;85.61;95509.28;5070934;28;20279;-63
2021/05/01 00:12:59;;;;;;;1999.90;999.90;;;;;;;15.24;85.83;95512.31;5070716;28;20260;-61
2021/05/01 00:15:26;;;;;;;1999.90;999.90;;;;;;;15.28;85.75;95522.94;5070658;28;20260;-62
2021/05/01 00:17:53;;;;;;;1999.90;999.90;;;;;;;15.39;85.15;95518.81;5070773;28;20663;-62
2021/05/01 00:20:20;;;;;;;1999.90;999.90;;;;;;;15.41;85.02;95508.78;5070851;28;20197;-62
2021/05/01 00:22:48;;;;;;;1999.90;999.90;;;;;;;15.41;84.70;95514.00;5070730;28;20260;-63
2021/05/01 00:25:15;;;;;;;1999.90;999.90;;;;;;;15.34;84.64;95519.78;5070703;28;20667;-63
2021/05/01 00:27:46;;;;;;;1999.90;999.90;;;;;;;15.32;85.09;95515.94;5070511;28;20571;-62
2021/05/01 00:30:13;;;;;;;1999.90;999.90;;;;;;;15.37;85.26;95513.91;5070531;28;20196;-62
2021/05/01 00:32:40;;;;;;;1999.90;999.90;;;;;;;15.48;84.59;95512.41;5070766;28;20223;-62
2021/05/01 00:35:08;;;;;;;1999.90;999.90;;;;;;;15.35;85.87;95518.69;5070588;28;20189;-61
2021/05/01 00:37:35;;;;;;;1999.90;999.90;;;;;;;15.33;86.23;95514.88;5070326;28;20719;-60
2021/05/01 00:40:04;;;;;;;1999.90;999.90;;;;;;;15.18;88.20;95508.38;5070572;28;20291;-61
2021/05/01 00:42:30;;;;;;;1999.90;999.90;;;;;;;15.14;88.72;95517.19;5070368;28;20194;-61
2021/05/01 00:44:57;;;;;;;1999.90;999.90;;;;;;;14.98;89.77;95514.41;5070674;28;20286;-63
2021/05/01 00:47:24;;;;;;;1999.90;999.90;;;;;;;15.02;89.92;95520.53;5070431;28;20622;-61
2021/05/01 00:49:51;;;;;;;1999.90;999.90;;;;;;;14.95;90.59;95520.25;5070527;28;20289;-62
2021/05/01 00:52:18;;;;;;;1999.90;999.90;;;;;;;14.97;90.85;95515.47;5070328;28;20261;-61
2021/05/01 00:54:45;;;;;;;1999.90;999.90;;;;;;;15.00;90.72;95515.59;5070222;28;20196;-61
2021/05/01 00:57:14;;;;;;;1999.90;999.90;;;;;;;14.90;91.72;95521.22;5070131;28;20254;-61
2021/05/01 00:59:40;;;;;;;1999.90;999.90;;;;;;;14.83;92.45;95517.59;5070264;28;20196;-62
2021/05/01 01:02:09;;;;;;;1999.90;999.90;;;;;;;14.89;91.89;95521.56;5070303;28;20196;-61
2021/05/01 01:04:35;;;;;;;1999.90;999.90;;;;;;;14.84;92.73;95522.50;5070055;28;20196;-61
2021/05/01 01:07:02;;;;;;;1999.90;999.90;;;;;;;14.86;92.28;95520.31;5070108;28;20192;-61
2021/05/01 01:09:29;;;;;;;1999.90;999.90;;;;;;;14.90;92.15;95509.97;5069940;28;20232;-61
2021/05/01 01:11:59;;;;;;;1999.90;999.90;;;;;;;14.90;92.33;95512.59;5069798;28;20227;-61
2021/05/01 01:14:26;;;;;;;1999.90;999.90;;;;;;;14.92;92.88;95507.81;5069612;28;20726;-61
2021/05/01 01:16:53;;;;;;;1999.90;999.90;;;;;;;14.94;92.47;95505.66;5069940;28;20260;-61
2021/05/01 01:19:20;;;;;;;1999.90;999.90;;;;;;;14.94;92.59;95505.66;5071374;28;20246;-63
2021/05/01 01:21:49;;;;;;;1999.90;999.90;;;;;;;14.86;92.97;95499.41;5076682;28;20207;-63
2021/05/01 01:24:17;;;;;;;1999.90;999.90;;;;;;;14.85;92.93;95494.47;5076630;28;20667;-63
2021/05/01 01:26:45;;;;;;;1999.90;999.90;;;;;;;14.89;93.12;95498.00;5076603;28;20659;-63
2021/05/01 01:29:14;;;;;;;1999.90;999.90;;;;;;;14.89;93.08;95492.78;5076645;28;20204;-63
2021/05/01 01:31:42;;;;;;;1999.90;999.90;;;;;;;14.91;93.00;95486.13;5076594;28;20193;-62
2021/05/01 01:34:08;;;;;;;1999.90;999.90;;;;;;;14.94;93.34;95495.19;5076391;28;20196;-61
2021/05/01 01:36:35;;;;;;;1999.90;999.90;;;;;;;14.90;93.52;95495.06;5076261;28;20301;-63
2021/05/01 01:39:02;;;;;;;1999.90;999.90;;;;;;;14.85;93.39;95491.84;5076809;28;20200;-63
2021/05/01 01:41:30;;;;;;;1999.90;999.90;;;;;;;14.83;92.79;95497.44;5076341;28;20338;-63
2021/05/01 01:43:57;;;;;;;1999.90;999.90;;;;;;;14.83;92.77;95492.19;5076445;28;20614;-63
2021/05/01 01:46:23;;;;;;;1999.90;999.90;;;;;;;14.75;93.10;95493.00;5076607;28;20235;-64
2021/05/01 01:48:50;;;;;;;1999.90;999.90;;;;;;;14.60;93.70;95491.72;5076143;28;20196;-62
2021/05/01 01:51:17;;;;;;;1999.90;999.90;;;;;;;14.46;95.38;95495.66;5076634;28;20576;-63
2021/05/01 01:53:44;;;;;;;1999.90;999.90;;;;;;;14.46;95.21;95496.44;5076518;28;20674;-62
2021/05/01 01:56:11;;;;;;;1999.90;999.90;;;;;;;14.47;95.22;95491.97;5076263;28;20192;-62
2021/05/01 01:58:39;;;;;;;1999.90;999.90;;;;;;;14.53;95.61;95494.09;5076183;28;20731;-61
2021/05/01 02:01:09;;;;;;;1999.90;999.90;;;;;;;14.56;94.97;95495.31;5076168;28;20200;-62
2021/05/01 02:03:36;;;;;;;1999.90;999.90;;;;;;;14.53;95.03;95490.72;5076272;28;20188;-62
2021/05/01 02:06:03;;;;;;;1999.90;999.90;;;;;;;14.57;94.94;95495.00;5076152;28;20283;-62
2021/05/01 02:08:30;;;;;;;1999.90;999.90;;;;;;;14.53;94.99;95491.50;5076205;28;20348;-62
2021/05/01 02:10:56;;;;;;;1999.90;999.90;;;;;;;14.39;95.70;95503.25;5076153;28;20204;-64
2021/05/01 02:13:23;;;;;;;1999.90;999.90;;;;;;;14.35;95.24;95505.69;5076387;28;20248;-62
2021/05/01 02:15:51;;;;;;;1999.90;999.90;;;;;;;14.22;96.29;95507.47;5076130;28;20224;-62
2021/05/01 02:18:18;;;;;;;1999.90;999.90;;;;;;;14.11;97.24;95515.97;5075869;28;20231;-63
2021/05/01 02:20:45;;;;;;;1999.90;999.90;;;;;;;14.13;96.95;95524.28;5076186;28;20192;-60
2021/05/01 02:23:12;;;;;;;1999.90;999.90;;;;;;;14.14;97.12;95531.03;5076274;28;20207;-61
2021/05/01 02:25:39;;;;;;;1999.90;999.90;;;;;;;14.10;96.86;95517.03;5076111;28;20196;-63
2021/05/01 02:28:06;;;;;;;1999.90;999.90;;;;;;;14.03;97.20;95517.56;5075977;28;20638;-63
2021/05/01 02:30:33;;;;;;;1999.90;999.90;;;;;;;13.98;96.98;95527.41;5075681;28;20204;-62
2021/05/01 02:33:01;;;;;;;1999.90;999.90;;;;;;;13.82;98.20;95510.72;5072273;28;20283;-62
2021/05/01 02:35:30;;;;;;;1999.90;999.90;;;;;;;13.77;98.94;95506.44;5072629;28;20200;-61
2021/05/01 02:37:57;;;;;;;1999.90;999.90;;;;;;;13.74;99.39;95513.06;5072802;28;20321;-61
2021/05/01 02:40:28;;;;;;;1999.90;999.90;;;;;;;13.76;99.38;95504.88;5072590;28;20207;-62
2021/05/01 02:42:55;;;;;;;1999.90;999.90;;;;;;;13.73;98.94;95521.19;5072610;28;20231;-63
2021/05/01 02:45:21;;;;;;;1999.90;999.90;;;;;;;13.66;98.73;95516.44;5072517;28;20330;-62
2021/05/01 02:47:50;;;;;;;1999.90;999.90;;;;;;;13.65;98.61;95512.28;5072434;28;20214;-62
2021/05/01 02:50:18;;;;;;;1999.90;999.90;;;;;;;13.61;98.95;95508.78;5072409;28;20200;-62
2021/05/01 02:52:46;;;;;;;1999.90;999.90;;;;;;;13.61;98.48;95508.00;5072503;28;20589;-61
2021/05/01 02:55:13;;;;;;;1999.90;999.90;;;;;;;13.66;98.58;95513.81;5072424;28;20288;-62
2021/05/01 02:57:41;;;;;;;1999.90;999.90;;;;;;;13.59;98.11;95499.72;5072137;28;20227;-62
2021/05/01 03:00:10;;;;;;;1999.90;999.90;;;;;;;13.65;98.09;95508.91;5072570;28;20262;-63
2021/05/01 03:02:36;;;;;;;1999.90;999.90;;;;;;;13.64;98.04;95512.63;5072368;28;20275;-62
2021/05/01 03:05:04;;;;;;;1999.90;999.90;;;;;;;13.55;98.00;95510.00;5072424;28;20738;-61
2021/05/01 03:07:31;;;;;;;1999.90;999.90;;;;;;;13.53;98.54;95512.19;5072043;28;20280;-61
2021/05/01 03:09:58;;;;;;;1999.90;999.90;;;;;;;13.51;98.19;95513.56;5072105;28;20194;-63
2021/05/01 03:12:28;;;;;;;1999.90;999.90;;;;;;;13.47;98.13;95521.25;5071813;28;20192;-61
2021/05/01 03:14:55;;;;;;;1999.90;999.90;;;;;;;13.52;98.25;95525.53;5071454;28;20650;-62
2021/05/01 03:17:21;;;;;;;1999.90;999.90;;;;;;;13.44;98.77;95514.06;5071894;28;20225;-61
2021/05/01 03:19:48;;;;;;;1999.90;999.90;;;;;;;13.44;98.47;95516.66;5071784;28;20269;-60
2021/05/01 03:22:15;;;;;;;1999.90;999.90;;;;;;;13.37;99.04;95518.97;5072103;28;20202;-60
2021/05/01 03:24:43;;;;;;;1999.90;999.90;;;;;;;13.43;98.50;95522.19;5071691;28;21183;-62
2021/05/01 03:27:09;;;;;;;1999.90;999.90;;;;;;;13.39;97.99;95532.47;5071887;28;20283;-61
2021/05/01 03:29:36;;;;;;;1999.90;999.90;;;;;;;13.38;97.81;95541.38;5071990;28;20188;-62
2021/05/01 03:32:03;;;;;;;1999.90;999.90;;;;;;;13.32;98.09;95532.94;5072003;28;20200;-62
2021/05/01 03:34:30;;;;;;;1999.90;999.90;;;;;;;13.27;98.07;95530.50;5071781;28;20299;-62
2021/05/01 03:36:57;;;;;;;1999.90;999.90;;;;;;;13.32;97.78;95538.16;5071614;28;20236;-62
2021/05/01 03:39:24;;;;;;;1999.90;999.90;;;;;;;13.28;97.79;95532.03;5071488;28;20326;-63
2021/05/01 03:41:52;;;;;;;1999.90;999.90;;;;;;;13.12;98.91;95522.38;5071843;28;20307;-61
2021/05/01 03:44:19;;;;;;;1999.90;999.90;;;;;;;13.23;99.16;95523.59;5070426;28;20203;-62
2021/05/01 03:46:46;;;;;;;1999.90;999.90;;;;;;;13.27;98.78;95516.66;5071325;28;20200;-62
2021/05/01 03:49:13;;;;;;;1999.90;999.90;;;;;;;13.36;99.08;95533.09;5071357;28;20228;-61
2021/05/01 03:51:40;;;;;;;1999.90;999.90;;;;;;;13.50;98.57;95532.94;5071263;28;20270;-62
2021/05/01 03:54:07;;;;;;;1999.90;999.90;;;;;;;13.55;98.50;95530.91;5071336;28;20204;-63
2021/05/01 03:56:35;;;;;;;1999.90;999.90;;;;;;;13.57;98.41;95533.97;5071133;28;20224;-61
2021/05/01 03:59:04;;;;;;;1999.90;999.90;;;;;;;13.42;97.87;95538.91;5071213;28;20196;-61
2021/05/01 04:01:31;;;;;;;1999.90;999.90;;;;;;;13.47;98.27;95536.16;5070996;28;20189;-62
2021/05/01 04:03:59;;;;;;;1999.90;999.90;;;;;;;13.55;97.47;95541.34;5071235;28;20295;-61
2021/05/01 04:06:26;;;;;;;1999.90;999.90;;;;;;;13.59;97.41;95547.50;5070722;28;20588;-61
2021/05/01 04:08:53;;;;;;;1999.90;999.90;;;;;;;13.63;97.41;95543.19;5071099;28;20192;-62
2021/05/01 04:11:20;;;;;;;1999.90;999.90;;;;;;;13.65;97.43;95551.47;5070940;28;20201;-62
2021/05/01 04:13:47;;;;;;;1999.90;999.90;;;;;;;13.74;97.30;95554.84;5070865;28;20290;-60
2021/05/01 04:16:15;;;;;;;1999.90;999.90;;;;;;;13.75;97.21;95550.34;5070763;28;20203;-63
2021/05/01 04:18:43;;;;;;;1999.90;999.90;;;;;;;13.79;97.53;95549.44;5070771;28;20242;-63
2021/05/01 04:21:10;;;;;;;1999.90;999.90;;;;;;;13.93;96.92;95543.25;5070868;28;20196;-61
2021/05/01 04:23:38;;;;;;;1999.90;999.90;;;;;;;13.99;96.72;95550.63;5070644;28;20567;-62
2021/05/01 04:26:05;;;;;;;1999.90;999.90;;;;;;;13.99;96.32;95560.31;5070818;28;20697;-62
2021/05/01 04:28:32;;;;;;;1999.90;999.90;;;;;;;13.83;97.27;95552.19;5070731;28;20570;-62
2021/05/01 04:30:59;;;;;;;1999.90;999.90;;;;;;;14.03;97.73;95555.97;5070446;28;20199;-62
2021/05/01 04:33:28;;;;;;;1999.90;999.90;;;;;;;14.57;96.96;95555.16;5070490;28;20222;-61
2021/05/01 04:35:56;;;;;;;1999.90;999.90;;;;;;;14.95;95.57;95543.81;5070643;28;20291;-61
2021/05/01 04:38:23;;;;;;;1999.90;999.90;;;;;;;15.34;94.91;95539.97;5070488;28;20220;-62
2021/05/01 04:40:50;;;;;;;1999.90;999.90;;;;;;;15.65;94.10;95542.94;5070369;28;20660;-62
2021/05/01 04:43:21;;;;;;;1999.90;999.90;;;;;;;15.74;92.79;95537.63;5070339;28;20200;-62
2021/05/01 04:45:48;;;;;;;1999.90;999.90;;;;;;;15.95;92.26;95546.16;5070413;28;20659;-61
2021/05/01 04:48:15;;;;;;;1999.90;999.90;;;;;;;16.22;91.23;95540.28;5070192;28;20192;-62
2021/05/01 04:50:43;;;;;;;1999.90;999.90;;;;;;;16.54;89.81;95543.88;5070176;28;20228;-63
2021/05/01 04:53:10;;;;;;;1999.90;999.90;;;;;;;16.78;90.30;95541.28;5070328;28;20196;-61
2021/05/01 04:55:37;;;;;;;1999.90;999.90;;;;;;;16.99;90.09;95548.97;5069822;28;20204;-62
2021/05/01 04:58:03;;;;;;;1999.90;999.90;;;;;;;17.14;89.43;95544.88;5070054;28;20687;-62
2021/05/01 05:00:30;;;;;;;1999.90;999.90;;;;;;;17.16;85.20;95548.72;5069951;28;20249;-62
2021/05/01 05:02:57;;;;;;;1999.90;999.90;;;;;;;17.29;86.18;95540.78;5070125;28;20303;-62
2021/05/01 05:05:24;;;;;;;1999.90;999.90;;;;;;;17.21;86.44;95545.84;5070184;28;20725;-62
2021/05/01 05:07:52;;;;;;;1999.90;999.90;;;;;;;17.31;86.28;95535.97;5069899;28;20655;-63
2021/05/01 05:10:18;;;;;;;1999.90;999.90;;;;;;;17.52;85.76;95547.81;5069951;28;20197;-61
2021/05/01 05:12:47;;;;;;;1999.90;999.90;;;;;;;17.63;86.80;95554.13;5070156;28;20534;-62
2021/05/01 05:15:15;;;;;;;1999.90;999.90;;;;;;;17.68;86.25;95552.38;5069732;28;20238;-62
2021/05/01 05:17:41;;;;;;;1999.90;999.90;;;;;;;17.86;84.02;95556.97;5070122;28;20315;-62
2021/05/01 05:20:10;;;;;;;1999.90;999.90;;;;;;;18.14;84.54;95566.66;5069961;28;20192;-63
2021/05/01 05:22:37;;;;;;;1999.90;999.90;;;;;;;18.17;83.96;95566.00;5069987;28;20241;-62
2021/05/01 05:25:05;;;;;;;1999.90;999.90;;;;;;;18.16;83.72;95561.84;5069745;28;20203;-61
2021/05/01 05:27:32;;;;;;;1999.90;999.90;;;;;;;18.09;82.60;95567.69;5069890;28;20214;-61
2021/05/01 05:29:59;;;;;;;1999.90;999.90;;;;;;;18.04;82.34;95560.81;5069632;28;20232;-61
2021/05/01 05:32:26;;;;;;;1999.90;999.90;;;;;;;18.22;81.58;95571.00;5069776;28;20290;-61
2021/05/01 05:34:54;;;;;;;1999.90;999.90;;;;;;;18.47;82.36;95569.72;5069807;28;20200;-60
2021/05/01 05:37:21;;;;;;;1999.90;999.90;;;;;;;18.52;81.80;95569.47;5069468;28;20228;-59
2021/05/01 05:39:50;;;;;;;1999.90;999.90;;;;;;;18.62;81.57;95573.47;5069695;28;20201;-61
2021/05/01 05:42:18;;;;;;;1999.90;999.90;;;;;;;18.62;80.39;95579.50;5069594;28;20192;-61
2021/05/01 05:44:48;;;;;;;1999.90;999.90;;;;;;;18.53;78.56;95578.88;5069836;28;20196;-61
2021/05/01 05:47:16;;;;;;;1999.90;999.90;;;;;;;18.65;79.25;95584.06;5070012;28;20224;-61
2021/05/01 05:49:43;;;;;;;1999.90;999.90;;;;;;;18.71;79.57;95585.34;5069813;28;20239;-62
2021/05/01 05:52:10;;;;;;;1999.90;999.90;;;;;;;18.93;80.39;95597.09;5069761;28;20193;-62
2021/05/01 05:54:37;;;;;;;1999.90;999.90;;;;;;;18.96;79.11;95593.78;5069526;28;20189;-62
2021/05/01 05:57:04;;;;;;;1999.90;999.90;;;;;;;18.93;78.61;95599.72;5069479;28;20236;-61
2021/05/01 05:59:32;;;;;;;1999.90;999.90;;;;;;;19.16;77.13;95594.59;5069798;28;20203;-62
2021/05/01 06:02:02;;;;;;;1999.90;999.90;;;;;;;19.27;76.24;95600.84;5069245;28;20242;-63
2021/05/01 06:04:31;;;;;;;1999.90;999.90;;;;;;;19.57;74.23;95588.66;5069832;28;20204;-61
2021/05/01 06:07:07;;;;;;;1999.90;999.90;;;;;;;19.93;71.61;95597.22;5071238;28;20219;-62
2021/05/01 06:09:36;;;;;;;1999.90;999.90;;;;;;;20.25;69.27;95598.53;5073287;28;20198;-62
2021/05/01 06:12:04;;;;;;;1999.90;999.90;;;;;;;20.49;67.86;95590.28;5073016;28;20197;-61
2021/05/01 06:14:33;;;;;;;1999.90;999.90;;;;;;;20.02;70.51;95590.63;5072977;28;20297;-60
2021/05/01 06:17:01;;;;;;;1999.90;999.90;;;;;;;20.38;72.25;95575.38;5073058;28;20677;-63
2021/05/01 06:19:28;;;;;;;1999.90;999.90;;;;;;;20.87;68.04;95576.13;5073013;28;20203;-61
2021/05/01 06:21:55;;;;;;;1999.90;999.90;;;;;;;21.39;67.61;95577.97;5072846;28;20698;-61
2021/05/01 06:24:22;;;;;;;1999.90;999.90;;;;;;;21.79;66.86;95565.91;5072858;28;20192;-62
2021/05/01 06:26:50;;;;;;;1999.90;999.90;;;;;;;21.68;65.96;95567.69;5072907;28;20235;-64
2021/05/01 06:29:18;;;;;;;1999.90;999.90;;;;;;;21.85;65.98;95561.81;5072976;28;20211;-62
2021/05/01 06:31:46;;;;;;;1999.90;999.90;;;;;;;21.78;68.14;95553.81;5072718;28;20288;-62
2021/05/01 06:34:13;;;;;;;1999.90;999.90;;;;;;;21.87;64.24;95548.97;5072741;28;20250;-62
2021/05/01 06:36:41;;;;;;;1999.90;999.90;;;;;;;21.95;64.51;95547.97;5072900;28;20279;-62
2021/05/01 06:39:09;;;;;;;1999.90;999.90;;;;;;;22.18;64.27;95545.13;5072493;28;20689;-63
2021/05/01 06:41:43;;;;;;;1999.90;999.90;;;;;;;22.52;63.44;95549.16;5072508;28;20199;-63
2021/05/01 06:44:16;;;;;;;1999.90;999.90;;;;;;;22.74;59.66;95555.41;5072597;28;20334;-63
2021/05/01 06:46:48;;;;;;;1999.90;999.90;;;;;;;22.84;59.12;95554.72;5072649;28;20725;-62
2021/05/01 06:49:29;;;;;;;1999.90;999.90;;;;;;;23.02;58.29;95554.78;5072618;28;20188;-63
2021/05/01 06:51:59;;;;;;;1999.90;999.90;;;;;;;23.01;60.89;95553.31;5072555;28;20193;-61
2021/05/01 06:54:26;;;;;;;1999.90;999.90;;;;;;;22.97;59.95;95557.78;5072527;28;20188;-64
2021/05/01 06:56:55;;;;;;;1999.90;999.90;;;;;;;23.01;60.21;95569.19;5072636;28;20224;-63
2021/05/01 06:59:22;;;;;;;1999.90;999.90;;;;;;;23.02;60.41;95579.41;5072430;28;20209;-63
2021/05/01 07:01:50;;;;;;;1999.90;999.90;;;;;;;23.16;61.60;95582.13;5072328;28;20193;-63
2021/05/01 07:04:17;;;;;;;1999.90;999.90;;;;;;;23.34;63.14;95597.38;5072242;28;20573;-63
2021/05/01 07:06:46;;;;;;;1999.90;999.90;;;;;;;23.50;60.41;95606.59;5072056;28;20667;-65
2021/05/01 07:09:13;;;;;;;1999.90;999.90;;;;;;;23.54;58.42;95611.91;5072343;28;20207;-64
2021/05/01 07:11:41;;;;;;;1999.90;999.90;;;;;;;23.69;60.30;95626.75;5072065;28;20204;-63
2021/05/01 07:14:10;;;;;;;1999.90;999.90;;;;;;;23.33;58.70;95622.38;5071552;28;20212;-63
2021/05/01 07:16:37;;;;;;;1999.90;999.90;;;;;;;23.28;60.84;95628.03;5072010;28;20193;-63
2021/05/01 07:19:09;;;;;;;1999.90;999.90;;;;;;;23.55;59.89;95626.69;5071763;28;20288;-63
2021/05/01 07:21:36;;;;;;;1999.90;999.90;;;;;;;23.79;59.07;95628.69;5071884;28;20200;-64
2021/05/01 07:24:04;;;;;;;1999.90;999.90;;;;;;;23.94;62.46;95614.31;5071847;28;20279;-64
2021/05/01 07:26:34;;;;;;;1999.90;999.90;;;;;;;23.96;58.49;95617.34;5071810;28;20207;-64
2021/05/01 07:29:03;;;;;;;1999.90;999.90;;;;;;;24.09;59.11;95611.69;5071940;28;20192;-63
2021/05/01 07:31:33;;;;;;;1999.90;999.90;;;;;;;24.30;54.92;95615.16;5071884;28;20568;-61
2021/05/01 07:34:00;;;;;;;1999.90;999.90;;;;;;;24.55;56.41;95604.56;5071641;28;20231;-62
2021/05/01 07:36:35;;;;;;;1999.90;999.90;;;;;;;24.77;53.42;95598.06;5071528;28;20609;-63
2021/05/01 07:39:03;;;;;;;1999.90;999.90;;;;;;;24.92;51.85;95590.84;5071582;28;20196;-63
2021/05/01 07:41:30;;;;;;;1999.90;999.90;;;;;;;25.17;51.87;95598.78;5071470;28;20196;-66
2021/05/01 07:44:00;;;;;;;1999.90;999.90;;;;;;;25.08;51.35;95609.06;5071482;28;20208;-62
2021/05/01 07:46:29;;;;;;;1999.90;999.90;;;;;;;25.33;49.35;95615.09;5071575;28;20283;-63
2021/05/01 07:48:56;;;;;;;1999.90;999.90;;;;;;;25.38;50.29;95609.38;5071244;28;20571;-63
2021/05/01 07:51:23;;;;;;;1999.90;999.90;;;;;;;25.36;50.52;95616.97;5071359;28;20578;-63
2021/05/01 07:53:51;;;;;;;1999.90;999.90;;;;;;;25.43;48.90;95622.28;5071337;28;20266;-63
2021/05/01 07:56:18;;;;;;;1999.90;999.90;;;;;;;25.65;48.21;95621.06;5071109;28;20207;-63
2021/05/01 07:58:45;;;;;;;1999.90;999.90;;;;;;;25.71;48.26;95618.75;5071450;28;20708;-63
2021/05/01 08:01:12;;;;;;;1999.90;999.90;;;;;;;25.71;50.95;95621.44;5071143;28;20207;-63
2021/05/01 08:03:39;;;;;;;1999.90;999.90;;;;;;;25.75;51.60;95618.78;5071030;28;20239;-64
2021/05/01 08:06:06;;;;;;;1999.90;999.90;;;;;;;25.84;52.58;95619.09;5070895;28;20192;-63
2021/05/01 08:08:34;;;;;;;1999.90;999.90;;;;;;;25.69;52.63;95618.41;5070891;28;20192;-63
2021/05/01 08:11:02;;;;;;;1999.90;999.90;;;;;;;25.82;50.30;95613.38;5070679;28;20742;-63
2021/05/01 08:13:28;;;;;;;1999.90;999.90;;;;;;;25.96;51.33;95606.09;5070764;28;20226;-64
2021/05/01 08:15:56;;;;;;;1999.90;999.90;;;;;;;26.04;53.65;95604.91;5070602;28;20248;-63
2021/05/01 08:18:23;;;;;;;1999.90;999.90;;;;;;;26.53;53.84;95600.41;5070497;28;20848;-63
2021/05/01 08:20:50;;;;;;;1999.90;999.90;;;;;;;26.63;50.02;95596.91;5070940;28;20251;-64
2021/05/01 08:23:17;;;;;;;1999.90;999.90;;;;;;;26.59;51.72;95598.84;5071109;28;20295;-63
2021/05/01 08:25:44;;;;;;;1999.90;999.90;;;;;;;26.69;50.03;95583.91;5070537;28;20210;-62
2021/05/01 08:28:12;;;;;;;1999.90;999.90;;;;;;;27.04;47.84;95591.59;5070623;28;20573;-64
2021/05/01 08:30:38;;;;;;;1999.90;999.90;;;;;;;26.69;48.69;95589.22;5069966;28;20197;-64
2021/05/01 08:33:05;;;;;;;1999.90;999.90;;;;;;;26.81;46.91;95589.47;5070695;28;20209;-62
2021/05/01 08:35:32;;;;;;;1999.90;999.90;;;;;;;26.82;47.75;95587.56;5070511;28;20682;-63
2021/05/01 08:37:59;;;;;;;1999.90;999.90;;;;;;;26.73;47.90;95588.03;5070269;28;20268;-64
2021/05/01 08:40:26;;;;;;;1999.90;999.90;;;;;;;26.48;48.47;95582.94;5070474;28;20204;-64
2021/05/01 08:42:53;;;;;;;1999.90;999.90;;;;;;;26.40;48.48;95573.44;5070586;28;20208;-63
2021/05/01 08:45:24;;;;;;;1999.90;999.90;;;;;;;26.34;53.36;95572.38;5070352;28;20295;-64
2021/05/01 08:47:51;;;;;;;1999.90;999.90;;;;;;;26.35;47.46;95573.16;5070577;28;20207;-64
2021/05/01 08:50:44;;;;;;;1999.90;999.90;;;;;;;26.18;48.67;95566.00;5070203;28;20286;-63
2021/05/01 08:53:11;;;;;;;1999.90;999.90;;;;;;;26.07;49.06;95566.81;5067948;28;20232;-63
2021/05/01 08:55:39;;;;;;;1999.90;999.90;;;;;;;26.33;49.75;95562.88;5070365;28;20281;-63
2021/05/01 08:58:09;;;;;;;1999.90;999.90;;;;;;;26.41;49.97;95566.97;5070057;28;20235;-64
2021/05/01 09:00:38;;;;;;;1999.90;999.90;;;;;;;26.66;49.43;95566.00;5070359;28;20207;-63
2021/05/01 09:03:07;;;;;;;1999.90;999.90;;;;;;;26.86;52.77;95556.28;5070166;28;20604;-63
2021/05/01 09:05:37;;;;;;;1999.90;999.90;;;;;;;27.01;53.62;95541.69;5070204;28;20218;-62
2021/05/01 09:08:06;;;;;;;1999.90;999.90;;;;;;;27.23;53.41;95552.88;5070159;28;20197;-63
2021/05/01 09:10:42;;;;;;;1999.90;999.90;;;;;;;27.19;50.23;95544.94;5069950;28;20193;-64
2021/05/01 09:13:14;;;;;;;1999.90;999.90;;;;;;;27.30;48.61;95548.19;5069861;28;20649;-63
2021/05/01 09:15:56;;;;;;;1999.90;999.90;;;;;;;27.36;47.81;95543.94;5069990;28;20311;-63
2021/05/01 09:18:23;;;;;;;1999.90;999.90;;;;;;;27.58;46.20;95546.38;5069940;28;20311;-63
2021/05/01 09:20:51;;;;;;;1999.90;999.90;;;;;;;27.62;43.39;95552.44;5069939;28;20196;-64
2021/05/01 09:23:18;;;;;;;1999.90;999.90;;;;;;;27.51;49.41;95541.88;5070124;28;20212;-64
2021/05/01 09:25:53;;;;;;;1999.90;999.90;;;;;;;27.59;48.02;95545.22;5069849;28;20188;-63
2021/05/01 09:28:21;;;;;;;1999.90;999.90;;;;;;;27.84;43.93;95545.66;5069872;28;20246;-64
2021/05/01 09:31:05;;;;;;;1999.90;999.90;;;;;;;27.84;48.72;95542.97;5069923;28;20333;-63
2021/05/01 09:33:33;;;;;;;1999.90;999.90;;;;;;;27.61;49.78;95548.22;5069829;28;20203;-63
2021/05/01 09:36:03;;;;;;;1999.90;999.90;;;;;;;27.56;45.60;95552.13;5069982;28;20200;-64
2021/05/01 09:38:33;;;;;;;1999.90;999.90;;;;;;;27.78;47.20;95555.25;5069747;28;20267;-63
2021/05/01 09:41:07;;;;;;;1999.90;999.90;;;;;;;27.38;42.44;95554.22;5071934;28;20200;-63
2021/05/01 09:43:33;;;;;;;1999.90;999.90;;;;;;;26.93;45.26;95546.34;5073783;28;20556;-62
2021/05/01 09:46:13;;;;;;;1999.90;999.90;;;;;;;27.02;45.15;95535.19;5073848;28;20220;-63
2021/05/01 09:48:40;;;;;;;1999.90;999.90;;;;;;;27.29;46.24;95538.69;5073734;28;20244;-63
2021/05/01 09:51:07;;;;;;;1999.90;999.90;;;;;;;27.53;46.90;95538.81;5073851;28;20189;-62
2021/05/01 09:53:39;;;;;;;1999.90;999.90;;;;;;;27.80;44.04;95521.63;5073608;28;20215;-64
2021/05/01 09:56:12;;;;;;;1999.90;999.90;;;;;;;28.10;44.62;95518.13;5073625;28;20578;-64
2021/05/01 09:58:52;;;;;;;1999.90;999.90;;;;;;;28.12;45.49;95515.09;5073407;28;20293;-63
2021/05/01 10:01:20;;;;;;;1999.90;999.90;;;;;;;28.08;46.77;95519.72;5073586;28;20638;-63
2021/05/01 10:03:47;;;;;;;1999.90;999.90;;;;;;;27.79;45.33;95530.06;5073737;28;20564;-63
2021/05/01 10:06:16;;;;;;;1999.90;999.90;;;;;;;27.79;44.30;95527.41;5073279;28;20189;-61
2021/05/01 10:08:52;;;;;;;1999.90;999.90;;;;;;;27.83;43.09;95530.78;5073225;28;20204;-62
2021/05/01 10:11:23;;;;;;;1999.90;999.90;;;;;;;28.28;47.37;95519.81;5073482;28;20188;-62
2021/05/01 10:13:52;;;;;;;1999.90;999.90;;;;;;;28.05;43.33;95523.94;5073061;28;20216;-64
2021/05/01 10:16:21;;;;;;;1999.90;999.90;;;;;;;28.16;39.94;95513.13;5072811;28;20232;-62
2021/05/01 10:19:07;;;;;;;1999.90;999.90;;;;;;;28.16;37.94;95500.50;5073047;28;20236;-62
2021/05/01 10:21:35;;;;;;;1999.90;999.90;;;;;;;28.21;37.94;95502.72;5072831;28;20205;-62
2021/05/01 10:24:03;;;;;;;1999.90;999.90;;;;;;;28.41;37.92;95499.34;5073328;28;20215;-63
2021/05/01 10:26:45;;;;;;;1999.90;999.90;;;;;;;28.62;43.12;95488.28;5072874;28;20290;-62
2021/05/01 10:29:26;;;;;;;1999.90;999.90;;;;;;;28.45;37.21;95478.63;5073190;28;20341;-62
2021/05/01 10:31:55;;;;;;;1999.90;999.90;;;;;;;28.78;36.50;95475.03;5073104;28;20200;-61
2021/05/01 10:34:24;;;;;;;1999.90;999.90;;;;;;;29.06;40.45;95474.47;5072841;28;20207;-62
2021/05/01 10:36:53;;;;;;;1999.90;999.90;;;;;;;29.29;41.32;95475.53;5072697;28;20643;-62
2021/05/01 10:39:21;;;;;;;1999.90;999.90;;;;;;;29.28;38.30;95474.78;5073069;28;20192;-62
2021/05/01 10:41:56;;;;;;;1999.90;999.90;;;;;;;28.99;37.49;95471.19;5072841;28;20239;-62
2021/05/01 10:44:23;;;;;;;1999.90;999.90;;;;;;;29.22;36.71;95462.28;5072548;28;20203;-62
2021/05/01 10:46:50;;;;;;;1999.90;999.90;;;;;;;29.37;36.31;95461.59;5072731;28;20192;-62
2021/05/01 10:49:18;;;;;;;1999.90;999.90;;;;;;;29.61;36.97;95458.78;5072624;28;20796;-62
2021/05/01 10:51:46;;;;;;;1999.90;999.90;;;;;;;29.77;38.44;95450.78;5072002;28;20246;-62
2021/05/01 10:54:17;;;;;;;1999.90;999.90;;;;;;;29.61;38.05;95464.91;5072379;28;20196;-62
2021/05/01 10:56:47;;;;;;;1999.90;999.90;;;;;;;29.33;37.39;95460.19;5072411;28;20203;-63
2021/05/01 10:59:16;;;;;;;1999.90;999.90;;;;;;;29.30;38.81;95459.03;5072554;28;20235;-63